Warren, AR (71671)

3:19 AM CST on December 22, 2014 (GMT -0600)
Hwy 172 | Change Station
CLOSE
Current Station
Personal Weather Station
Location: Monticello, AR
Elevation: 246 ft
Nearby Weather Stations

Elev 246 ft 33.55 °N, 91.82 °W | Updated 4 minutes ago

Overcast
Overcast
46.0 °F
Feels Like 46 °F
N
0.0
Wind Variable Wind from South
Gusts 0.0 mph

Today
High -- | Low -- °F
--% Chance of Precip.
Yesterday
High -- | Low -- °F
Precip. -- in
7:09 AM 5:04 PM
New Moon, 0% visible
Pressure 29.85 in
Visibility 7.0 miles
Clouds Overcast 400 ft
Windchill 46 °F
Dew Point 34 °F
Humidity 62%
Rainfall 0.00 in
Snow Depth Not available.
UV 0 out of 12
Pollen 6.60 out of 12
Air Quality Not available.
Flu Activity Not available.
METAR KLLQ 220853Z AUTO 15006KT 7SM OVC004 08/07 A2985 RMK AO2 SLP107 T00830072 58011

More Conditions Fewer Conditions

Pressure 29.85 in
Visibility 7.0 miles
Clouds Overcast 400 ft
Windchill 46 °F
Dew Point 34 °F
Humidity 62%
Rainfall 0.00 in
Snow Depth Not available.
UV 0 out of 12
Pollen 6.60 out of 12
Air Quality Not available.
Flu Activity Not available.
METAR KLLQ 220853Z AUTO 15006KT 7SM OVC004 08/07 A2985 RMK AO2 SLP107 T00830072 58011

More Conditions Fewer Conditions

10-Day Weather Forecast

Almanac

Astronomy

Dec. 22, 2014 Rise Set
Actual Time
Civil Twilight
Nautical Twilight
Astronomical Twilight
Moon
Length of Visible Light
Length of Day
Tomorrow will be .
, % of the Moon is Illuminated

Today's Extremes

State Highs State Lows

Community

WunderPhotos

Upload Photos

1,779,580 photos uploaded!

WunderBlogs® & News

Nearby

Air Quality

  Air Quality AQ Index Pollutant
Not available.

Snow Depth

Station Depth Elevation

Earthquake Activity

City Distance Mag. Time & Date
Minimum magnitude displayed is 2.5.

Coastal Water Temperatures

Place Temperature

Nearby Weather Stations